| time (UTC) | temp F | wind direction | speed knots | gust knots | rain 1hr in | rain 24hr in | rain mn in | humidity % | barometer mb |
| 20260506212522 | 85 | 218 | 0.9 | 2.6 | 0.00 | 0.00 | 0.00 | 75 | 1009.1 |
| 20260506211426 | 84 | 196 | 0.0 | 0.0 | 0.00 | 0.00 | 0.00 | 76 | 1009.1 |
| 20260506210524 | 85 | 210 | 0.9 | 3.5 | 0.00 | 0.00 | 0.00 | 76 | 1009.3 |
| 20260506205623 | 85 | 56 | 0.0 | 0.9 | 0.00 | 0.00 | 0.00 | 75 | 1009.2 |
| 20260506204625 | 85 | 154 | 0.0 | 0.0 | 0.00 | 0.00 | 0.00 | 75 | 1009.3 |
| 20260506204524 | 85 | 180 | 0.9 | 4.3 | 0.00 | 0.00 | 0.00 | 76 | 1009.4 |
| 20260506203525 | 85 | 232 | 0.0 | 0.0 | 0.00 | 0.00 | 0.00 | 76 | 1009.4 |
| 20260506202523 | 84 | 216 | 0.9 | 3.5 | 0.00 | 0.00 | 0.00 | 79 | 1009.6 |
| 20260506201526 | 83 | 210 | 0.9 | 1.7 | 0.00 | 0.00 | 0.00 | 80 | 1009.7 |
| 20260506200623 | 83 | 225 | 0.0 | 1.7 | 0.00 | 0.00 | 0.00 | 79 | 1010.0 |
| 20260506195624 | 83 | 185 | 0.0 | 1.7 | 0.00 | 0.00 | 0.00 | 80 | 1010.1 |
| 20260506194625 | 84 | 225 | 0.9 | 2.6 | 0.00 | 0.00 | 0.00 | 79 | 1010.0 |
| 20260506193623 | 84 | 224 | 0.0 | 0.9 | 0.00 | 0.00 | 0.00 | 79 | 1010.2 |
| 20260506193524 | 84 | 185 | 0.0 | 2.6 | 0.00 | 0.00 | 0.00 | 78 | 1010.2 |
| 20260506191622 | 84 | 224 | 1.7 | 2.6 | 0.00 | 0.00 | 0.00 | 77 | 1010.2 |
| 20260506190624 | 84 | 129 | 0.0 | 0.0 | 0.00 | 0.00 | 0.00 | 78 | 1010.4 |
| 20260506190522 | 84 | 205 | 0.0 | 0.9 | 0.00 | 0.00 | 0.00 | 77 | 1010.6 |
| 20260506185523 | 84 | 202 | 0.0 | 0.9 | 0.00 | 0.00 | 0.00 | 79 | 1010.5 |
| 20260506185423 | 84 | 202 | 0.0 | 0.9 | 0.00 | 0.00 | 0.00 | 79 | 1010.5 |
| 20260506184424 | 84 | 219 | 0.0 | 1.7 | 0.00 | 0.00 | 0.00 | 78 | 1010.8 |
| 20260506182525 | 84 | 219 | 0.9 | 1.7 | 0.00 | 0.00 | 0.00 | 79 | 1010.9 |
| 20260506181623 | 83 | 202 | 0.9 | 1.7 | 0.00 | 0.00 | 0.00 | 79 | 1010.9 |
| 20260506180624 | 84 | 208 | 1.7 | 2.6 | 0.00 | 0.00 | 0.00 | 78 | 1011.1 |
| 20260506175723 | 83 | 225 | 0.0 | 2.6 | 0.00 | 0.00 | 0.00 | 81 | 1011.1 |
| 20260506174724 | 82 | 225 | 0.0 | 1.7 | 0.00 | 0.00 | 0.00 | 83 | 1011.2 |
| 20260506173726 | 82 | 227 | 0.0 | 0.9 | 0.00 | 0.00 | 0.00 | 83 | 1011.2 |
| 20260506172823 | 82 | 220 | 0.0 | 0.0 | 0.00 | 0.00 | 0.00 | 83 | 1011.3 |
| 20260506171824 | 82 | 190 | 0.9 | 3.5 | 0.00 | 0.00 | 0.00 | 84 | 1011.5 |
| 20260506171722 | 82 | 232 | 0.9 | 3.5 | 0.00 | 0.00 | 0.00 | 85 | 1011.5 |
| 20260506170726 | 81 | 225 | 0.0 | 0.0 | 0.00 | 0.00 | 0.00 | 87 | 1011.7 |
| 20260506165725 | 80 | 208 | 0.9 | 3.5 | 0.00 | 0.00 | 0.00 | 89 | 1011.7 |
| 20260506164823 | 79 | 225 | 0.0 | 0.0 | 0.00 | 0.00 | 0.00 | 89 | 1011.7 |
| 20260506163824 | 79 | 219 | 0.9 | 2.6 | 0.00 | 0.00 | 0.00 | 89 | 1011.7 |
| 20260506162824 | 80 | 225 | 0.0 | 0.9 | 0.00 | 0.00 | 0.00 | 87 | 1011.6 |
| 20260506161823 | 79 | 202 | 0.0 | 0.0 | 0.00 | 0.00 | 0.00 | 88 | 1011.5 |
| 20260506160824 | 80 | 225 | 0.0 | 0.9 | 0.00 | 0.00 | 0.00 | 88 | 1011.6 |
| 20260506155922 | 80 | 202 | 0.0 | 0.9 | 0.00 | 0.00 | 0.00 | 88 | 1011.5 |
| 20260506155022 | 79 | 202 | 0.0 | 1.7 | 0.00 | 0.00 | 0.00 | 88 | 1011.4 |
| 20260506154024 | 79 | 180 | 0.0 | 0.0 | 0.00 | 0.00 | 0.00 | 89 | 1011.1 |
| 20260506153026 | 79 | 137 | 0.0 | 0.0 | 0.00 | 0.00 | 0.00 | 88 | 1011.0 |
| 20260506152926 | 79 | 181 | 0.0 | 0.0 | 0.00 | 0.00 | 0.00 | 89 | 1011.0 |
| 20260506152023 | 79 | 225 | 0.0 | 0.0 | 0.00 | 0.00 | 0.00 | 87 | 1011.0 |
| 20260506151027 | 79 | 204 | 0.0 | 0.0 | 0.00 | 0.00 | 0.00 | 88 | 1010.9 |
| 20260506145924 | 79 | 218 | 0.0 | 0.9 | 0.00 | 0.00 | 0.00 | 89 | 1010.5 |
| 20260506144924 | 79 | 221 | 0.0 | 0.9 | 0.00 | 0.00 | 0.00 | 90 | 1010.4 |
| 20260506143923 | 79 | 202 | 0.0 | 0.0 | 0.00 | 0.00 | 0.00 | 90 | 1010.4 |
| 20260506142924 | 79 | 225 | 0.0 | 0.9 | 0.00 | 0.00 | 0.00 | 89 | 1010.5 |
| 20260506141924 | 79 | 225 | 0.0 | 1.7 | 0.00 | 0.00 | 0.00 | 89 | 1010.6 |
| 20260506140923 | 79 | 200 | 0.0 | 0.9 | 0.00 | 0.00 | 0.00 | 89 | 1010.6 |
| 20260506135923 | 79 | 180 | 0.9 | 1.7 | 0.00 | 0.00 | 0.00 | 89 | 1010.7 |
| 20260506133923 | 78 | 202 | 0.0 | 0.0 | 0.00 | 0.00 | 0.00 | 92 | 1010.6 |
| 20260506132924 | 77 | 202 | 0.0 | 1.7 | 0.00 | 0.00 | 0.00 | 92 | 1010.8 |
| 20260506130923 | 77 | 157 | 0.0 | 0.0 | 0.00 | 0.00 | 0.00 | 92 | 1010.9 |
| 20260506125924 | 77 | 202 | 0.0 | 0.0 | 0.00 | 0.00 | 0.00 | 93 | 1010.8 |
| 20260506124923 | 77 | 202 | 0.0 | 0.0 | 0.00 | 0.00 | 0.00 | 93 | 1010.6 |
| 20260506122924 | 76 | 225 | 0.0 | 0.0 | 0.00 | 0.00 | 0.00 | 94 | 1010.5 |
| 20260506121824 | 76 | 225 | 0.0 | 0.0 | 0.00 | 0.00 | 0.00 | 93 | 1010.4 |
| 20260506120923 | 76 | 188 | 0.0 | 1.7 | 0.00 | 0.00 | 0.00 | 95 | 1010.4 |
| 20260506115924 | 76 | 202 | 0.0 | 0.9 | 0.00 | 0.00 | 0.00 | 95 | 1010.2 |
| 20260506114924 | 76 | 202 | 0.0 | 0.0 | 0.00 | 0.00 | 0.00 | 95 | 1010.0 |
| 20260506114825 | 75 | 217 | 0.0 | 0.9 | 0.00 | 0.00 | 0.00 | 95 | 1009.9 |
| 20260506113824 | 75 | 225 | 0.0 | 0.0 | 0.00 | 0.00 | 0.00 | 94 | 1009.8 |
| 20260506111823 | 76 | 225 | 0.0 | 0.0 | 0.00 | 0.00 | 0.00 | 95 | 1009.6 |
| 20260506110922 | 76 | 225 | 0.0 | 0.9 | 0.00 | 0.00 | 0.00 | 95 | 1009.6 |
| 20260506105926 | 75 | 225 | 0.0 | 1.7 | 0.00 | 0.00 | 0.00 | 95 | 1009.4 |
| 20260506105023 | 75 | 247 | 0.0 | 0.0 | 0.00 | 0.00 | 0.00 | 94 | 1009.7 |
| 20260506104024 | 75 | 225 | 0.0 | 0.0 | 0.00 | 0.00 | 0.00 | 95 | 1009.6 |
| 20260506103925 | 75 | 225 | 0.0 | 0.0 | 0.00 | 0.00 | 0.00 | 94 | 1009.6 |
| 20260506102924 | 75 | 225 | 0.0 | 0.0 | 0.00 | 0.00 | 0.00 | 94 | 1009.5 |
| 20260506101924 | 75 | 225 | 0.0 | 0.0 | 0.00 | 0.00 | 0.00 | 95 | 1009.7 |
| 20260506100039 | 75 | 225 | 0.0 | 0.0 | 0.00 | 0.00 | 0.00 | 94 | 1009.4 |
| 20260506095024 | 75 | 225 | 0.0 | 0.0 | 0.00 | 0.00 | 0.00 | 94 | 1009.4 |
| 20260506094025 | 75 | 225 | 0.0 | 0.0 | 0.00 | 0.00 | 0.00 | 93 | 1009.3 |
| 20260506093122 | 76 | 225 | 0.0 | 0.0 | 0.00 | 0.00 | 0.00 | 93 | 1009.4 |
| 20260506093024 | 76 | 225 | 0.0 | 0.0 | 0.00 | 0.00 | 0.00 | 92 | 1009.3 |
| 20260506092023 | 76 | 225 | 0.0 | 0.0 | 0.00 | 0.00 | 0.00 | 93 | 1009.4 |
| 20260506091023 | 76 | 225 | 0.0 | 0.0 | 0.00 | 0.00 | 0.00 | 92 | 1009.4 |
| 20260506083123 | 76 | 180 | 0.0 | 0.9 | 0.00 | 0.00 | 0.00 | 92 | 1009.9 |
| 20260506082126 | 76 | 225 | 0.0 | 0.0 | 0.00 | 0.00 | 0.00 | 91 | 1009.6 |
| 20260506081125 | 77 | 225 | 0.0 | 0.0 | 0.00 | 0.00 | 0.00 | 91 | 1009.7 |
| 20260506080125 | 77 | 221 | 0.0 | 0.9 | 0.00 | 0.00 | 0.00 | 91 | 1009.8 |
| 20260506073323 | 77 | 220 | 1.7 | 3.5 | 0.00 | 0.00 | 0.00 | 90 | 1010.2 |
| 20260506072325 | 77 | 207 | 0.9 | 2.6 | 0.00 | 0.00 | 0.00 | 90 | 1010.4 |
| 20260506071422 | 77 | 235 | 0.0 | 3.5 | 0.00 | 0.00 | 0.00 | 90 | 1010.4 |
| 20260506061624 | 77 | 225 | 0.0 | 1.7 | 0.00 | 0.00 | 0.00 | 89 | 1010.3 |
| 20260506060622 | 77 | 202 | 0.0 | 0.9 | 0.00 | 0.00 | 0.00 | 90 | 1010.3 |
| 20260506050722 | 77 | 214 | 0.0 | 0.9 | 0.00 | 0.00 | 0.00 | 88 | 1010.5 |
| 20260506043722 | 77 | 215 | 0.9 | 2.6 | 0.00 | 0.00 | 0.00 | 89 | 1010.4 |
| 20260506042724 | 77 | 180 | 0.0 | 0.9 | 0.00 | 0.00 | 0.00 | 88 | 1010.3 |
| 20260506041724 | 77 | 227 | 0.0 | 0.9 | 0.00 | 0.00 | 0.00 | 89 | 1010.4 |
| 20260506035723 | 77 | 202 | 0.0 | 0.9 | 0.00 | 0.00 | 0.00 | 89 | 1010.2 |
| 20260506033726 | 77 | 222 | 0.9 | 3.5 | 0.00 | 0.00 | 0.00 | 87 | 1010.2 |
| 20260506031725 | 77 | 225 | 0.9 | 2.6 | 0.00 | 0.00 | 0.00 | 88 | 1010.1 |
| 20260506030724 | 77 | 225 | 0.0 | 2.6 | 0.00 | 0.00 | 0.00 | 89 | 1010.0 |
| 20260506025723 | 77 | 178 | 0.0 | 0.9 | 0.00 | 0.00 | 0.00 | 89 | 1009.9 |
| 20260506024723 | 77 | 217 | 0.9 | 2.6 | 0.00 | 0.00 | 0.00 | 89 | 1009.8 |
| 20260506024624 | 77 | 225 | 0.0 | 0.9 | 0.00 | 0.00 | 0.00 | 89 | 1009.9 |
| 20260506023624 | 77 | 192 | 0.0 | 2.6 | 0.00 | 0.00 | 0.00 | 89 | 1009.5 |
| 20260506022722 | 77 | 225 | 0.0 | 0.9 | 0.00 | 0.00 | 0.00 | 88 | 1009.4 |
| 20260506021722 | 77 | 214 | 0.9 | 3.5 | 0.00 | 0.00 | 0.00 | 88 | 1009.3 |
| 20260506020723 | 77 | 188 | 0.0 | 1.7 | 0.00 | 0.00 | 0.00 | 88 | 1009.3 |
| 20260506015724 | 77 | 225 | 0.0 | 2.6 | 0.00 | 0.00 | 0.00 | 87 | 1009.0 |
| 20260506014724 | 77 | 202 | 0.0 | 1.7 | 0.00 | 0.00 | 0.00 | 87 | 1008.9 |
| 20260506013822 | 78 | 180 | 0.0 | 1.7 | 0.00 | 0.00 | 0.00 | 86 | 1008.8 |
| 20260506012822 | 78 | 173 | 0.9 | 7.8 | 0.00 | 0.00 | 0.00 | 86 | 1008.8 |
| 20260506011824 | 78 | 189 | 0.0 | 0.9 | 0.00 | 0.00 | 0.00 | 85 | 1008.7 |
| 20260506010825 | 78 | 225 | 0.0 | 0.9 | 0.00 | 0.00 | 0.00 | 84 | 1008.5 |
| 20260506005923 | 78 | 232 | 1.7 | 3.5 | 0.00 | 0.00 | 0.00 | 85 | 1008.5 |
| 20260506004024 | 78 | 206 | 0.9 | 3.5 | 0.00 | 0.00 | 0.00 | 84 | 1008.3 |
| 20260506003023 | 79 | 219 | 1.7 | 3.5 | 0.00 | 0.00 | 0.00 | 84 | 1008.2 |
| 20260506002025 | 79 | 183 | 0.0 | 1.7 | 0.00 | 0.00 | 0.00 | 83 | 1008.3 |
| 20260506001121 | 79 | 215 | 1.7 | 4.3 | 0.00 | 0.00 | 0.00 | 83 | 1008.1 |
| 20260506000122 | 79 | 218 | 0.9 | 3.5 | 0.00 | 0.00 | 0.00 | 83 | 1008.2 |
| 20260505235125 | 79 | 156 | 0.0 | 2.6 | 0.00 | 0.00 | 0.00 | 81 | 1008.1 |
| 20260505234223 | 79 | 201 | 1.7 | 6.1 | 0.00 | 0.00 | 0.00 | 81 | 1008.1 |
| 20260505233121 | 80 | 217 | 0.9 | 3.5 | 0.00 | 0.00 | 0.00 | 81 | 1008.3 |
| 20260505230222 | 80 | 185 | 0.0 | 3.5 | 0.00 | 0.00 | 0.00 | 78 | 1008.4 |
| 20260505225223 | 80 | 226 | 2.6 | 4.3 | 0.00 | 0.00 | 0.00 | 78 | 1008.3 |
| 20260505224224 | 80 | 220 | 0.0 | 0.0 | 0.00 | 0.00 | 0.00 | 80 | 1008.2 |
| 20260505222222 | 80 | 182 | 0.0 | 2.6 | 0.00 | 0.00 | 0.00 | 81 | 1008.3 |
| 20260505221223 | 80 | 193 | 0.0 | 1.7 | 0.00 | 0.00 | 0.00 | 80 | 1008.4 |
| 20260505220224 | 80 | 204 | 1.7 | 3.5 | 0.00 | 0.00 | 0.00 | 80 | 1008.4 |
| 20260505215223 | 81 | 185 | 0.0 | 2.6 | 0.00 | 0.00 | 0.00 | 80 | 1008.7 |
| 20260505214223 | 81 | 168 | 0.0 | 0.9 | 0.00 | 0.00 | 0.00 | 79 | 1008.6 |